createdAt,value
2019-03-20T00:00:20.022Z,6.47
2019-03-20T00:02:49.926Z,8.33
2019-03-20T00:05:18.320Z,10.73
2019-03-20T00:07:46.763Z,5.20
2019-03-20T00:10:15.160Z,11.67
2019-03-20T00:12:43.794Z,7.00
2019-03-20T00:15:15.866Z,5.53
2019-03-20T00:17:44.253Z,5.60
2019-03-20T00:20:13.905Z,7.30
2019-03-20T00:22:43.455Z,8.50
2019-03-20T00:25:12.655Z,7.03
2019-03-20T00:27:41.182Z,7.13
2019-03-20T00:30:15.568Z,6.30
2019-03-20T00:32:44.347Z,6.97
2019-03-20T00:35:13.330Z,9.23
2019-03-20T00:37:41.733Z,5.10
2019-03-20T00:40:16.805Z,5.43
2019-03-20T00:42:45.268Z,14.23
2019-03-20T00:45:16.982Z,7.67
2019-03-20T00:47:45.594Z,10.53
2019-03-20T00:50:18.066Z,5.90
2019-03-20T00:52:46.614Z,6.07
2019-03-20T00:55:16.133Z,10.57
2019-03-20T00:57:45.265Z,5.97
2019-03-20T01:00:23.901Z,5.00
2019-03-20T01:02:52.382Z,10.07
2019-03-20T01:05:24.253Z,5.57
2019-03-20T01:07:52.649Z,4.77
2019-03-20T01:10:25.484Z,8.50
2019-03-20T01:12:53.862Z,7.47
2019-03-20T01:15:22.270Z,8.03
2019-03-20T01:17:51.223Z,74.40
2019-03-20T01:20:23.325Z,27.80
2019-03-20T01:22:52.174Z,23.03
2019-03-20T01:25:20.900Z,17.13
2019-03-20T01:27:49.441Z,8.97
2019-03-20T01:30:32.554Z,12.53
2019-03-20T01:33:03.493Z,11.00
2019-03-20T01:35:31.882Z,5.17
2019-03-20T01:38:00.311Z,9.87
2019-03-20T01:40:28.684Z,8.83
2019-03-20T01:42:57.074Z,6.63
2019-03-20T01:45:25.770Z,8.93
2019-03-20T01:47:54.146Z,11.23
2019-03-20T01:50:22.522Z,12.40
2019-03-20T01:52:50.947Z,8.40
2019-03-20T01:55:19.323Z,5.43
2019-03-20T01:57:47.942Z,4.20
2019-03-20T02:00:17.062Z,5.80
2019-03-20T02:02:45.799Z,6.00
2019-03-20T02:05:14.633Z,4.73
2019-03-20T02:07:43.276Z,10.17
2019-03-20T02:10:16.595Z,9.87
2019-03-20T02:12:45.989Z,6.30
2019-03-20T02:15:19.749Z,7.47
2019-03-20T02:17:48.871Z,10.03
2019-03-20T02:20:19.291Z,8.20
2019-03-20T02:22:47.762Z,9.60
2019-03-20T02:25:16.590Z,6.77
2019-03-20T02:27:45.050Z,4.70
2019-03-20T02:30:18.661Z,5.10
2019-03-20T02:32:47.114Z,6.67
2019-03-20T02:35:15.565Z,9.43
2019-03-20T02:37:43.987Z,4.00
2019-03-20T02:40:13.735Z,10.43
2019-03-20T02:42:42.184Z,7.07
2019-03-20T02:45:12.453Z,4.07
2019-03-20T02:47:40.846Z,7.63
2019-03-20T02:50:10.944Z,5.07
2019-03-20T02:52:39.379Z,5.37
2019-03-20T02:55:09.585Z,7.57
2019-03-20T02:57:37.958Z,5.13
2019-03-20T03:00:17.445Z,7.10
2019-03-20T03:02:45.879Z,6.27
2019-03-20T03:05:14.606Z,5.73
2019-03-20T03:07:43.256Z,5.00
2019-03-20T03:10:13.912Z,5.70
2019-03-20T03:12:42.633Z,11.00
2019-03-20T03:15:12.070Z,8.73
2019-03-20T03:17:40.688Z,5.67
2019-03-20T03:20:11.173Z,8.40
2019-03-20T03:22:40.170Z,16.40
2019-03-20T03:25:10.024Z,10.10
2019-03-20T03:27:38.452Z,10.77
2019-03-20T03:30:17.606Z,8.67
2019-03-20T03:32:46.721Z,8.57
2019-03-20T03:35:18.257Z,6.60
2019-03-20T03:37:45.976Z,5.13
2019-03-20T03:40:15.890Z,8.00
2019-03-20T03:42:44.280Z,8.43
2019-03-20T03:45:14.139Z,7.20
2019-03-20T03:47:42.812Z,6.10
2019-03-20T03:50:12.279Z,6.60
2019-03-20T03:52:40.702Z,9.30
2019-03-20T03:55:13.461Z,9.27
2019-03-20T03:57:42.158Z,7.57
2019-03-20T04:00:18.913Z,7.70
2019-03-20T04:02:47.503Z,5.30
2019-03-20T04:05:16.259Z,10.30
2019-03-20T04:07:44.677Z,7.90
2019-03-20T04:10:17.289Z,9.70
2019-03-20T04:12:45.674Z,8.17
2019-03-20T04:15:15.983Z,8.00
2019-03-20T04:17:44.446Z,4.83
2019-03-20T04:20:17.279Z,7.77
2019-03-20T04:22:45.923Z,6.50
2019-03-20T04:25:14.734Z,8.70
2019-03-20T04:27:43.182Z,6.57
2019-03-20T04:30:16.576Z,7.70
2019-03-20T04:32:44.957Z,8.37
2019-03-20T04:35:13.891Z,7.20
2019-03-20T04:37:42.361Z,6.37
2019-03-20T04:40:13.153Z,4.63
2019-03-20T04:42:41.771Z,9.10
2019-03-20T04:45:12.758Z,8.87
2019-03-20T04:47:41.341Z,5.00
2019-03-20T04:50:11.486Z,6.60
2019-03-20T04:52:39.895Z,6.80
2019-03-20T04:55:09.153Z,6.30
2019-03-20T04:57:37.783Z,6.03
2019-03-20T05:00:24.317Z,7.50
2019-03-20T05:02:52.943Z,5.67
2019-03-20T05:05:21.531Z,7.40
2019-03-20T05:07:50.404Z,8.57
2019-03-20T05:10:19.721Z,10.17
2019-03-20T05:12:48.396Z,7.97
2019-03-20T05:15:16.818Z,6.50
2019-03-20T05:17:45.201Z,10.57
2019-03-20T05:20:15.784Z,5.73
2019-03-20T05:22:44.370Z,8.40
2019-03-20T05:25:12.766Z,5.73
2019-03-20T05:27:41.585Z,10.50
2019-03-20T05:30:12.909Z,10.37
2019-03-20T05:32:41.372Z,17.23
2019-03-20T05:35:10.101Z,10.03
2019-03-20T05:37:38.782Z,7.70
2019-03-20T05:40:10.746Z,4.90
2019-03-20T05:42:39.153Z,6.63
2019-03-20T05:45:13.614Z,6.77
2019-03-20T05:47:42.014Z,7.70
2019-03-20T05:50:14.294Z,5.30
2019-03-20T05:52:43.051Z,4.77
2019-03-20T05:55:14.411Z,8.33
2019-03-20T05:57:42.867Z,5.83
2019-03-20T06:00:21.646Z,5.27
2019-03-20T06:02:50.030Z,5.63
2019-03-20T06:05:18.699Z,8.83
2019-03-20T06:07:47.104Z,7.33
2019-03-20T06:10:16.809Z,8.23
2019-03-20T06:12:45.211Z,7.53
2019-03-20T06:15:14.359Z,5.83
2019-03-20T06:17:42.819Z,8.10
2019-03-20T06:20:15.075Z,6.63
2019-03-20T06:22:43.987Z,9.73
2019-03-20T06:25:13.867Z,8.30
2019-03-20T06:27:42.241Z,6.50
2019-03-20T06:30:15.309Z,7.90
2019-03-20T06:32:43.715Z,6.30
2019-03-20T06:35:12.339Z,9.67
2019-03-20T06:37:40.745Z,10.57
2019-03-20T06:40:15.335Z,11.10
2019-03-20T06:42:43.988Z,11.50
2019-03-20T06:45:20.147Z,11.47
2019-03-20T06:47:48.546Z,8.17
2019-03-20T06:50:17.781Z,10.93
2019-03-20T06:52:46.213Z,11.40
2019-03-20T06:55:14.834Z,12.23
2019-03-20T06:57:43.533Z,9.57
2019-03-20T07:00:44.096Z,8.97
2019-03-20T07:03:21.389Z,10.10
2019-03-20T07:05:53.151Z,10.67
2019-03-20T07:08:24.383Z,8.20
2019-03-20T07:11:11.430Z,11.50
2019-03-20T07:13:40.329Z,9.03
2019-03-20T07:16:08.808Z,8.50
2019-03-20T07:18:37.233Z,7.40
2019-03-20T07:21:05.762Z,10.37
2019-03-20T07:23:34.402Z,8.90
2019-03-20T07:26:02.889Z,9.67
2019-03-20T07:28:31.291Z,8.63
2019-03-20T07:30:59.919Z,15.17
2019-03-20T07:33:28.926Z,10.33
2019-03-20T07:35:57.317Z,8.87
2019-03-20T07:38:25.958Z,10.37
2019-03-20T07:40:54.389Z,10.30
2019-03-20T07:43:22.780Z,7.27
2019-03-20T07:45:51.471Z,9.53
2019-03-20T07:48:22.527Z,11.60
2019-03-20T07:50:50.253Z,10.77
2019-03-20T07:53:18.670Z,11.20
2019-03-20T07:55:47.105Z,8.00
2019-03-20T07:58:15.518Z,11.57
2019-03-20T08:00:44.999Z,12.50
2019-03-20T08:03:13.439Z,11.50
2019-03-20T08:05:42.100Z,14.17
2019-03-20T08:08:10.510Z,9.00
2019-03-20T08:10:39.238Z,15.83
2019-03-20T08:13:07.885Z,10.20
2019-03-20T08:15:36.373Z,12.80
2019-03-20T08:18:06.369Z,12.90
2019-03-20T08:20:34.766Z,14.27
2019-03-20T08:23:03.558Z,12.10
2019-03-20T08:25:32.282Z,10.87
2019-03-20T08:28:00.675Z,11.00
2019-03-20T08:30:29.073Z,12.53
2019-03-20T08:32:57.747Z,11.87
2019-03-20T08:35:26.504Z,10.50
2019-03-20T08:37:55.118Z,14.50
2019-03-20T08:40:23.783Z,15.17
2019-03-20T08:42:52.249Z,9.70
2019-03-20T08:45:20.664Z,12.10
2019-03-20T08:47:49.114Z,12.63
2019-03-20T08:50:19.159Z,15.33
2019-03-20T08:52:47.981Z,12.63
2019-03-20T08:55:17.526Z,12.53
2019-03-20T08:57:45.983Z,14.60
2019-03-20T09:00:22.653Z,13.27
2019-03-20T09:02:51.313Z,17.53
2019-03-20T09:05:19.790Z,10.60
2019-03-20T09:07:48.458Z,12.37
2019-03-20T09:10:25.380Z,12.80
2019-03-20T09:12:53.795Z,17.87
2019-03-20T09:15:22.807Z,11.03
2019-03-20T09:17:51.241Z,9.63
2019-03-20T09:20:23.752Z,9.70
2019-03-20T09:22:52.146Z,11.40
2019-03-20T09:25:24.305Z,13.53
2019-03-20T09:27:53.864Z,12.40
2019-03-20T09:30:27.474Z,14.10
2019-03-20T09:32:55.865Z,14.63
2019-03-20T09:35:24.519Z,10.47
2019-03-20T09:37:53.151Z,11.50
2019-03-20T09:40:24.038Z,11.53
2019-03-20T09:42:52.538Z,12.20
2019-03-20T09:45:22.961Z,11.13
2019-03-20T09:47:51.444Z,20.13
2019-03-20T09:50:23.524Z,15.40
2019-03-20T09:52:52.381Z,17.03
2019-03-20T09:55:20.846Z,12.47
2019-03-20T09:57:49.351Z,8.97
2019-03-20T10:00:28.018Z,10.53
2019-03-20T10:02:56.764Z,10.00
2019-03-20T10:05:25.157Z,13.90
2019-03-20T10:07:53.716Z,13.73
2019-03-20T10:10:29.932Z,12.70
2019-03-20T10:12:59.324Z,12.17
2019-03-20T10:15:28.619Z,12.60
2019-03-20T10:17:57.297Z,16.30
2019-03-20T10:20:26.107Z,9.27
2019-03-20T10:22:55.631Z,10.07
2019-03-20T10:25:24.077Z,14.40
2019-03-20T10:27:52.479Z,12.37
2019-03-20T10:30:27.475Z,9.80
2019-03-20T10:32:55.970Z,8.57
2019-03-20T10:35:24.531Z,9.37
2019-03-20T10:37:52.937Z,16.83
2019-03-20T10:40:25.322Z,12.47
2019-03-20T10:42:53.782Z,10.13
2019-03-20T10:45:22.335Z,10.23
2019-03-20T10:47:53.263Z,8.80
2019-03-20T10:50:22.721Z,7.97
2019-03-20T10:52:51.113Z,7.13
2019-03-20T10:55:19.575Z,9.97
2019-03-20T10:57:47.969Z,7.77
2019-03-20T11:00:20.851Z,9.93
2019-03-20T11:02:49.408Z,7.73
2019-03-20T11:05:19.357Z,9.50
2019-03-20T11:07:48.107Z,5.20
2019-03-20T11:10:19.885Z,10.40
2019-03-20T11:12:48.295Z,6.97
2019-03-20T11:15:18.170Z,6.40
2019-03-20T11:17:46.698Z,8.10
2019-03-20T11:20:16.907Z,8.53
2019-03-20T11:22:45.642Z,10.00
2019-03-20T11:25:17.125Z,6.03
2019-03-20T11:27:45.584Z,7.67
2019-03-20T11:30:17.911Z,5.67
2019-03-20T11:32:46.445Z,7.17
2019-03-20T11:35:14.919Z,5.40
2019-03-20T11:37:43.311Z,7.93
2019-03-20T11:40:23.504Z,5.70
2019-03-20T11:42:52.181Z,5.63
2019-03-20T11:45:23.280Z,7.50
2019-03-20T11:47:51.009Z,8.00
2019-03-20T11:50:22.722Z,6.07
2019-03-20T11:52:51.351Z,4.93
2019-03-20T11:55:20.976Z,5.40
2019-03-20T11:57:49.931Z,9.50
2019-03-20T12:00:19.516Z,6.50
2019-03-20T12:02:53.037Z,6.23
2019-03-20T12:05:21.950Z,5.90
2019-03-20T12:07:51.785Z,6.87
2019-03-20T12:10:21.734Z,6.87
2019-03-20T12:12:50.446Z,5.63
2019-03-20T12:15:19.133Z,7.67
2019-03-20T12:17:48.531Z,8.87
2019-03-20T12:20:21.874Z,6.83
2019-03-20T12:22:51.118Z,9.10
2019-03-20T12:25:34.927Z,7.60
2019-03-20T12:28:03.406Z,8.03
2019-03-20T12:30:38.541Z,11.70
2019-03-20T12:33:07.285Z,9.87
2019-03-20T12:35:44.540Z,10.47
2019-03-20T12:38:15.159Z,10.93
2019-03-20T12:40:43.534Z,11.50
2019-03-20T12:43:12.009Z,10.73
2019-03-20T12:45:40.972Z,8.80
2019-03-20T12:48:11.628Z,8.37
2019-03-20T12:50:40.430Z,8.13
2019-03-20T12:53:15.423Z,9.37
2019-03-20T12:55:44.054Z,12.43
2019-03-20T12:58:12.459Z,7.50
2019-03-20T13:00:40.955Z,11.07
2019-03-20T13:03:09.355Z,8.43
2019-03-20T13:05:38.019Z,8.67
2019-03-20T13:08:07.534Z,8.97
2019-03-20T13:10:36.177Z,8.77
2019-03-20T13:13:04.855Z,8.40
2019-03-20T13:15:33.685Z,11.10
2019-03-20T13:18:02.246Z,7.00
2019-03-20T13:20:30.626Z,7.80
2019-03-20T13:23:23.264Z,7.67
2019-03-20T13:25:51.901Z,9.10
2019-03-20T13:28:20.315Z,7.80
2019-03-20T13:31:02.075Z,11.13
2019-03-20T13:33:30.476Z,7.60
2019-03-20T13:35:58.860Z,8.30
2019-03-20T13:38:27.330Z,6.63
2019-03-20T13:40:55.777Z,7.53
2019-03-20T13:43:24.170Z,13.00
2019-03-20T13:45:52.986Z,7.60
2019-03-20T13:48:22.154Z,7.87
2019-03-20T13:50:50.572Z,8.27
2019-03-20T13:53:18.974Z,8.40
2019-03-20T13:55:47.402Z,8.70
2019-03-20T13:58:16.105Z,9.10
2019-03-20T14:00:44.568Z,6.70
2019-03-20T14:03:12.965Z,8.53
2019-03-20T14:05:41.380Z,9.53
2019-03-20T14:08:09.778Z,7.57
2019-03-20T14:10:49.494Z,8.03
2019-03-20T14:13:08.298Z,7.53
2019-03-20T14:15:36.729Z,6.30
2019-03-20T14:18:05.530Z,8.17
2019-03-20T14:20:33.906Z,7.47
2019-03-20T14:23:02.682Z,8.37
2019-03-20T14:25:31.206Z,10.33
2019-03-20T14:27:59.631Z,7.50
2019-03-20T14:30:28.855Z,7.00
2019-03-20T14:32:57.587Z,6.60
2019-03-20T14:35:26.670Z,9.50
2019-03-20T14:37:55.390Z,7.90
2019-03-20T14:40:36.405Z,12.00
2019-03-20T14:43:05.453Z,6.57
2019-03-20T14:45:34.202Z,8.93
2019-03-20T14:48:02.595Z,8.50
2019-03-20T14:50:36.576Z,8.93
2019-03-20T14:53:04.866Z,7.43
2019-03-20T14:55:33.266Z,9.13
2019-03-20T14:58:01.947Z,6.90
2019-03-20T15:00:31.090Z,9.27
2019-03-20T15:02:59.622Z,6.70
2019-03-20T15:05:29.753Z,7.90
2019-03-20T15:07:58.132Z,7.47
2019-03-20T15:10:27.656Z,7.97
2019-03-20T15:12:56.853Z,8.30
2019-03-20T15:15:43.230Z,8.73
2019-03-20T15:18:11.661Z,6.83
2019-03-20T15:20:40.133Z,6.90
2019-03-20T15:23:08.533Z,7.57
2019-03-20T15:25:37.587Z,7.97
2019-03-20T15:28:06.136Z,7.13
2019-03-20T15:30:34.535Z,6.97
2019-03-20T15:33:03.086Z,6.03
2019-03-20T15:35:31.727Z,7.93
2019-03-20T15:38:00.139Z,8.93
2019-03-20T15:40:30.726Z,8.30
2019-03-20T15:42:59.128Z,7.60
2019-03-20T15:45:27.753Z,7.90
2019-03-20T15:47:56.473Z,8.63
2019-03-20T15:50:28.157Z,10.67
2019-03-20T15:52:57.021Z,8.40
2019-03-20T15:55:28.534Z,7.87
2019-03-20T15:57:57.239Z,5.67
2019-03-20T16:00:25.677Z,11.33
2019-03-20T16:03:08.988Z,10.57
2019-03-20T16:05:37.644Z,6.33
2019-03-20T16:08:06.399Z,6.13
2019-03-20T16:10:35.088Z,6.60
2019-03-20T16:13:04.354Z,5.53
2019-03-20T16:15:32.777Z,5.67
2019-03-20T16:18:01.667Z,7.67
2019-03-20T16:20:30.114Z,5.37
2019-03-20T16:22:59.999Z,6.73
2019-03-20T16:25:29.062Z,9.33
2019-03-20T16:27:57.500Z,5.37
2019-03-20T16:30:30.350Z,6.43
2019-03-20T16:32:58.774Z,6.53
2019-03-20T16:35:27.167Z,7.10
2019-03-20T16:37:55.883Z,5.73
2019-03-20T16:40:32.832Z,6.17
2019-03-20T16:43:01.259Z,8.43
2019-03-20T16:45:32.248Z,5.83
2019-03-20T16:48:00.734Z,7.43
2019-03-20T16:50:29.493Z,5.93
2019-03-20T16:52:57.899Z,9.80
2019-03-20T16:55:26.585Z,8.77
2019-03-20T16:57:55.087Z,7.70
2019-03-20T17:00:27.774Z,7.57
2019-03-20T17:02:56.441Z,9.07
2019-03-20T17:05:27.749Z,6.90
2019-03-20T17:07:56.558Z,8.63
2019-03-20T17:10:39.437Z,7.53
2019-03-20T17:13:07.893Z,8.67
2019-03-20T17:15:38.072Z,6.90
2019-03-20T17:18:07.580Z,7.83
2019-03-20T17:20:36.077Z,15.90
2019-03-20T17:23:07.683Z,7.97
2019-03-20T17:25:36.243Z,9.70
2019-03-20T17:28:05.309Z,6.90
2019-03-20T17:30:38.226Z,7.37
2019-03-20T17:33:07.628Z,9.10
2019-03-20T17:35:36.034Z,7.13
2019-03-20T17:38:04.896Z,8.93
2019-03-20T17:40:33.374Z,8.30
2019-03-20T17:43:02.012Z,10.50
2019-03-20T17:45:30.966Z,8.30
2019-03-20T17:47:59.376Z,8.03
2019-03-20T17:50:31.430Z,9.70
2019-03-20T17:52:59.903Z,9.93
2019-03-20T17:55:28.394Z,9.27
2019-03-20T17:57:57.170Z,9.87
2019-03-20T18:00:33.305Z,13.33
2019-03-20T18:03:01.970Z,10.23
2019-03-20T18:05:30.617Z,11.23
2019-03-20T18:07:59.244Z,13.17
2019-03-20T18:10:27.647Z,11.63
2019-03-20T18:12:56.044Z,9.23
2019-03-20T18:15:24.747Z,11.97
2019-03-20T18:17:53.152Z,15.27
2019-03-20T18:20:21.630Z,13.37
2019-03-20T18:22:50.117Z,12.70
2019-03-20T18:25:18.513Z,11.50
2019-03-20T18:27:46.998Z,12.10
2019-03-20T18:30:32.554Z,10.07
2019-03-20T18:33:01.854Z,16.70
2019-03-20T18:35:30.252Z,11.60
2019-03-20T18:37:58.717Z,9.90
2019-03-20T18:40:27.945Z,9.00
2019-03-20T18:42:56.372Z,9.07
2019-03-20T18:45:26.508Z,9.50
2019-03-20T18:47:55.130Z,10.17
2019-03-20T18:50:25.013Z,14.70
2019-03-20T18:52:54.783Z,9.50
2019-03-20T18:55:23.227Z,12.43
2019-03-20T18:57:51.707Z,12.83
2019-03-20T19:00:27.745Z,11.57
2019-03-20T19:03:01.515Z,12.30
2019-03-20T19:05:35.971Z,11.80
2019-03-20T19:08:05.493Z,13.47
2019-03-20T19:10:34.386Z,10.93
2019-03-20T19:13:03.037Z,10.37
2019-03-20T19:15:31.523Z,13.63
2019-03-20T19:18:00.324Z,18.00
2019-03-20T19:20:28.865Z,15.03
2019-03-20T19:22:57.579Z,17.37
2019-03-20T19:25:25.979Z,14.03
2019-03-20T19:27:54.418Z,11.80
2019-03-20T19:30:24.536Z,12.97
2019-03-20T19:32:53.258Z,13.13
2019-03-20T19:35:22.053Z,12.53
2019-03-20T19:37:50.549Z,17.90
2019-03-20T19:40:22.332Z,15.87
2019-03-20T19:42:50.869Z,16.73
2019-03-20T19:45:19.759Z,13.17
2019-03-20T19:47:48.294Z,15.20
2019-03-20T19:50:21.333Z,14.80
2019-03-20T19:52:49.816Z,14.43
2019-03-20T19:55:18.761Z,13.10
2019-03-20T19:57:47.318Z,10.93
2019-03-20T20:00:26.285Z,10.60
2019-03-20T20:02:55.910Z,14.50
2019-03-20T20:05:24.322Z,13.30
2019-03-20T20:07:53.202Z,12.83
2019-03-20T20:10:21.646Z,17.10
2019-03-20T20:12:50.096Z,14.57
2019-03-20T20:15:26.924Z,15.90
2019-03-20T20:17:55.567Z,13.57
2019-03-20T20:20:41.634Z,18.13
2019-03-20T20:23:10.054Z,13.87
2019-03-20T20:25:38.452Z,15.40
2019-03-20T20:28:07.058Z,11.97
2019-03-20T20:30:35.610Z,15.30
2019-03-20T20:33:04.147Z,18.43
2019-03-20T20:35:32.739Z,14.43
2019-03-20T20:38:01.199Z,12.13
2019-03-20T20:40:30.357Z,14.97
2019-03-20T20:42:59.036Z,14.17
2019-03-20T20:45:27.517Z,16.10
2019-03-20T20:47:55.925Z,13.87
2019-03-20T20:50:24.671Z,15.93
2019-03-20T20:52:53.557Z,17.10
2019-03-20T20:55:22.903Z,15.53
2019-03-20T20:57:51.750Z,19.97
2019-03-20T21:00:26.482Z,19.23
2019-03-20T21:02:55.485Z,19.27
2019-03-20T21:05:24.154Z,36.20
2019-03-20T21:07:52.645Z,51.27
2019-03-20T21:10:21.968Z,44.23
2019-03-20T21:12:56.113Z,33.60
2019-03-20T21:15:35.502Z,29.33
2019-03-20T21:18:12.777Z,23.97
2019-03-20T21:20:41.188Z,19.70
2019-03-20T21:23:38.215Z,15.73
2019-03-20T21:26:08.614Z,29.67
2019-03-20T21:29:02.293Z,18.90
2019-03-20T21:31:34.279Z,25.37
2019-03-20T21:34:28.160Z,18.93
2019-03-20T21:36:59.656Z,25.33
2019-03-20T21:39:28.079Z,29.77
2019-03-20T21:42:02.176Z,28.27
2019-03-20T21:45:06.852Z,26.93
2019-03-20T21:47:35.384Z,28.13
2019-03-20T21:50:29.261Z,15.50
2019-03-20T21:52:57.857Z,19.80
2019-03-20T21:55:45.672Z,22.03
2019-03-20T21:58:17.229Z,19.47
2019-03-20T22:01:14.251Z,19.60
2019-03-20T22:03:43.912Z,21.50
2019-03-20T22:06:48.977Z,20.53
2019-03-20T22:09:19.510Z,19.10
2019-03-20T22:12:16.250Z,17.63
2019-03-20T22:14:47.897Z,19.90
2019-03-20T22:17:49.841Z,18.97
2019-03-20T22:20:35.352Z,16.97
2019-03-20T22:23:40.011Z,16.50
2019-03-20T22:26:40.132Z,16.53
2019-03-20T22:29:25.278Z,21.90
2019-03-20T22:32:13.096Z,19.20
2019-03-20T22:34:53.138Z,20.00
2019-03-20T22:37:21.855Z,15.03
2019-03-20T22:40:11.028Z,13.90
2019-03-20T22:42:42.774Z,15.53
2019-03-20T22:45:17.177Z,17.63
2019-03-20T22:48:14.992Z,18.10
2019-03-20T22:50:49.089Z,19.60
2019-03-20T22:53:29.383Z,15.03
2019-03-20T22:56:12.567Z,18.20
2019-03-20T22:58:45.792Z,22.30
2019-03-20T23:01:17.506Z,20.13
2019-03-20T23:03:55.187Z,20.90
2019-03-20T23:06:23.613Z,14.33
2019-03-20T23:08:52.772Z,14.50
2019-03-20T23:11:21.293Z,18.43
2019-03-20T23:13:49.802Z,18.60
2019-03-20T23:16:20.620Z,17.03
2019-03-20T23:18:49.281Z,16.57
2019-03-20T23:21:17.697Z,17.87
2019-03-20T23:23:46.107Z,15.80
2019-03-20T23:26:14.557Z,19.77
2019-03-20T23:28:43.545Z,19.03
2019-03-20T23:31:11.942Z,17.00
2019-03-20T23:33:40.393Z,15.87
2019-03-20T23:36:08.789Z,18.70
2019-03-20T23:38:37.419Z,30.33
2019-03-20T23:41:07.749Z,17.50
2019-03-20T23:43:36.402Z,18.50
2019-03-20T23:46:06.129Z,18.40
2019-03-20T23:48:46.520Z,14.13
2019-03-20T23:51:18.561Z,15.77
2019-03-20T23:53:49.211Z,17.63
2019-03-20T23:56:17.663Z,17.97
2019-03-20T23:58:46.078Z,17.17
